Flight Track Log - Related Links

Times and Time Zones

All times are in EDT time to prevent confusion due to time zone crossing. See the EGF4174 flight status page for this flight to view local times or setup timezone preferences in your user account.

Time Position Orientation Groundspeed Altitude Reporting Facility
EDT Latitude Longitude Course Direction KTS MPH feet Rate Location/Type
Wed 04:45:21 PM 43.1094 -76.1406 286° West 111 128 1,000  Level Boston Center
Wed 04:46:22 PM 43.1114 -76.2061 272° West 208 239 3,300 2,656 Climbing Boston Center
Wed 04:47:23 PM 43.1150 -76.2889 273° West 216 249 6,400 2,173 Climbing Boston Center
Wed 04:48:00 PM 43.2022 -76.5152 281° West  Level FlightAware Approximate
Wed 04:49:00 PM 43.2189 -76.6269 286° West  Level FlightAware Approximate
Wed 04:49:38 PM 43.1289 -76.4667 276° West 226 260 10,400  Level Cleveland Center
Wed 04:50:00 PM 43.2424 -76.7363 286° West  Level FlightAware Approximate
Wed 04:50:38 PM 43.1303 -76.5633 271° West 239 275 11,500  Level Cleveland Center
Wed 04:51:38 PM 43.1297 -76.6686 270° West 266 306 12,900 1,600 Climbing Cleveland Center
Wed 04:52:38 PM 43.1292 -76.7767 270° West 283 326 14,700 1,650 Climbing Cleveland Center
Wed 04:53:38 PM 43.1286 -76.8878 270° West 288 331 16,200 1,450 Climbing Cleveland Center
Wed 04:54:38 PM 43.1281 -76.9986 270° West 288 331 17,600 1,550 Climbing Cleveland Center
Wed 04:55:38 PM 43.1272 -77.1097 269° West 288 331 19,300 1,600 Climbing Cleveland Center
Wed 04:56:38 PM 43.1283 -77.2206 271° West 288 331 20,800 1,400 Climbing Cleveland Center
Wed 04:57:38 PM 43.1253 -77.3347 268° West 293 337 22,100 1,150 Climbing Cleveland Center
Wed 04:58:38 PM 43.1244 -77.4514 269° West 299 344 23,100 1,000 Climbing Cleveland Center
Wed 04:59:38 PM 43.1256 -77.5736 271° West 310 357 24,100 950 Climbing Cleveland Center
Wed 05:00:38 PM 43.1247 -77.7017 270° West 327 376 25,000 950 Climbing Cleveland Center
Wed 05:01:38 PM 43.1214 -77.8297 268° West 333 383 26,000 1,000 Climbing Cleveland Center
Wed 05:02:38 PM 43.1203 -77.9581 269° West 338 389 27,000 1,100 Climbing Cleveland Center
Wed 05:03:38 PM 43.1194 -78.1031 270° West 345 397 28,200 1,091 Climbing Cleveland Center
Wed 05:04:39 PM 43.1178 -78.2339 269° West 345 397 29,200 950 Climbing Cleveland Center
Wed 05:05:38 PM 43.1164 -78.3619 269° West 345 397 30,100 958 Climbing Cleveland Center
Wed 05:06:38 PM 43.1144 -78.4928 269° West 345 397 31,100 1,000 Climbing Cleveland Center
Wed 05:07:38 PM 43.1106 -78.6239 268° West 345 397 32,100 1,000 Climbing Cleveland Center
Wed 05:08:38 PM 43.1086 -78.7547 269° West 350 403 33,100 1,000 Climbing Cleveland Center
Wed 05:09:38 PM 43.1064 -78.8914 269° West 350 403 34,100 1,000 Climbing Cleveland Center
Wed 05:10:38 PM 43.1042 -79.0222 269° West 350 403 35,100 981 Climbing Cleveland Center
Wed 05:11:22 PM 43.1000 -79.1000 266° West 340 391 35,800 519 Climbing Toronto Center
Wed 05:12:22 PM 43.0833 -79.2167 259° West 340 391 36,000 100 Climbing Toronto Center
Wed 05:13:22 PM 43.0833 -79.3667 270° West 350 403 36,000  Level Toronto Center
Wed 05:14:22 PM 43.0833 -79.5000 270° West 360 414 36,000  Level Toronto Center
Wed 05:15:22 PM 43.0833 -79.6333 270° West 360 414 36,000  Level Toronto Center
Wed 05:16:22 PM 43.0667 -79.7667 260° West 350 403 36,000  Level Toronto Center
Wed 05:17:22 PM 43.0667 -79.9000 270° West 350 403 36,000  Level Toronto Center
Wed 05:18:22 PM 43.0667 -80.0500 270° West 350 403 36,000  Level Toronto Center
Wed 05:19:22 PM 43.0667 -80.1833 270° West 350 403 36,000  Level Toronto Center
Wed 05:20:22 PM 43.0667 -80.3000 270° West 360 414 36,000  Level Toronto Center
Wed 05:21:22 PM 43.0500 -80.4500 261° West 360 414 36,000  Level Toronto Center
Wed 05:22:22 PM 43.0500 -80.5667 270° West 360 414 36,000  Level Toronto Center
Wed 05:23:22 PM 43.0500 -80.7333 270° West 370 426 36,000  Level Toronto Center
Wed 05:24:22 PM 43.0333 -80.8667 260° West 360 414 36,000  Level Toronto Center
Wed 05:25:22 PM 43.0167 -81.0000 260° West 370 426 36,000  Level Toronto Center
Wed 05:26:22 PM 43.0167 -81.1333 270° West 370 426 36,000  Level Toronto Center
Wed 05:27:22 PM 43.0167 -81.2667 270° West 370 426 36,000  Level Toronto Center
Wed 05:28:22 PM 43.0167 -81.4333 270° West 380 437 36,000  Level Toronto Center
Wed 05:29:22 PM 43.0167 -81.5667 270° West 380 437 36,000  Level Toronto Center
Wed 05:30:22 PM 43.0167 -81.7000 270° West 370 426 36,000  Level Toronto Center
Wed 05:31:22 PM 43.0167 -81.8500 270° West 360 414 36,000  Level Toronto Center
Wed 05:32:22 PM 43.0000 -81.9833 260° West 370 426 36,000  Level Toronto Center
Wed 05:33:22 PM 43.0000 -82.1167 270° West 370 426 36,000  Level Toronto Center
Wed 05:34:22 PM 43.0000 -82.2833 270° West 380 437 36,000  Level Toronto Center
Wed 05:35:22 PM 43.0000 -82.4167 270° West 380 437 36,000  Level Toronto Center
Wed 05:36:22 PM 43.0000 -82.5667 270° West 380 437 36,000  Level Toronto Center
Wed 05:36:50 PM 43.0028 -82.6272 274° West 384 442 36,000  Level Cleveland Center
Wed 05:37:50 PM 42.9958 -82.7717 266° West 384 442 36,000 -100 Level Cleveland Center
Wed 05:38:50 PM 42.9867 -82.9189 265° West 384 442 35,800 -850 Descending Cleveland Center
Wed 05:39:50 PM 42.9797 -83.0550 266° West 384 442 34,300 -1,300 Descending Cleveland Center
Wed 05:40:50 PM 42.9725 -83.1967 266° West 379 436 33,200 -1,050 Descending Cleveland Center
Wed 05:41:50 PM 42.9650 -83.3381 266° West 374 430 32,200 -600 Descending Cleveland Center
Wed 05:42:50 PM 42.9553 -83.4825 265° West 374 430 32,000 -100 Descending Cleveland Center
Wed 05:43:50 PM 42.9475 -83.6211 266° West 379 436 32,000  Level Cleveland Center
Wed 05:44:50 PM 42.9372 -83.7653 264° West 384 442 32,000  Level Cleveland Center
Wed 05:45:50 PM 42.9272 -83.9064 265° West 384 442 32,000  Level Cleveland Center
Wed 05:47:22 PM 42.9167 -84.1333 266° West 390 449 32,000  Level Toronto Center
Wed 05:47:57 PM 42.9092 -84.2275 264° West 384 442 32,000 -124 Level Chicago Center
Wed 05:48:59 PM 42.9000 -84.3742 265° West 389 448 31,800 -871 Descending Chicago Center
Wed 05:50:01 PM 42.8897 -84.5200 265° West 390 449 30,200 -1,500 Descending Chicago Center
Wed 05:51:03 PM 42.8772 -84.6622 263° West 381 438 28,700 -1,065 Descending Chicago Center
Wed 05:52:05 PM 42.8625 -84.8069 262° West 384 442 28,000 -339 Descending Chicago Center
Wed 05:53:07 PM 42.8472 -84.9539 262° West 393 452 28,000  Level Chicago Center
Wed 05:54:09 PM 42.8267 -85.1317 261° West 395 455 28,000  Level Chicago Center
Wed 05:55:12 PM 42.8103 -85.2786 261° West 394 453 28,000  Level Chicago Center
Wed 05:56:14 PM 42.7944 -85.4286 262° West 399 459 28,000  Level Chicago Center
Wed 05:57:16 PM 42.7750 -85.5767 260° West 397 457 28,000  Level Chicago Center
Wed 05:58:18 PM 42.7472 -85.7222 255° West 397 457 28,000 -97 Level Chicago Center
Wed 05:59:20 PM 42.7206 -85.8675 256° West 394 453 27,800 -2,246 Descending Chicago Center
Wed 06:01:25 PM 42.6614 -86.1881 256° West 398 458 21,000 -2,503 Descending Chicago Center
Wed 06:02:27 PM 42.6361 -86.3208 256° West 368 423 20,000 -484 Descending Chicago Center
Wed 06:03:29 PM 42.6111 -86.4569 256° West 370 426 20,000 -677 Level Chicago Center
Wed 06:04:31 PM 42.5853 -86.5942 256° West 374 430 18,600 -1,548 Descending Chicago Center
Wed 06:05:33 PM 42.5619 -86.7256 256° West 363 418 16,800 -1,839 Descending Chicago Center
Wed 06:06:35 PM 42.5286 -86.8494 250° West 355 409 14,800 -2,129 Descending Chicago Center
Wed 06:07:37 PM 42.4889 -86.9908 249° West 335 386 12,400 -1,984 Descending Chicago Center
Wed 06:08:39 PM 42.4406 -87.0875 236° Southwest 348 400 10,700 -1,355 Descending Chicago Center
Wed 06:09:41 PM 42.3714 -87.1428 211° Southwest 289 333 9,600 -968 Descending Chicago Center
Wed 06:10:43 PM 42.3092 -87.1953 212° Southwest 274 315 8,700 -1,065 Descending Chicago Center
Wed 06:11:45 PM 42.2331 -87.2622 213° Southwest 274 315 7,400 -823 Descending Chicago Center
Wed 06:12:47 PM 42.1700 -87.3150 212° Southwest 268 308 7,000 -194 Descending Chicago Center
Wed 06:13:49 PM 42.1106 -87.3683 214° Southwest 259 298 7,000  Level Chicago Center
Wed 06:14:51 PM 42.0547 -87.4311 220° Southwest 269 310 7,000 -192 Level Chicago Center
Wed 06:15:54 PM 42.0244 -87.5114 243° Southwest 243 280 6,600 -864 Descending Chicago Center
Wed 06:16:56 PM 41.9978 -87.5931 246° West 242 278 5,200 -1,355 Descending Chicago Center

Login

Don't have an account? Register now (free) for customized features, flight alerts, and more!